sensor_id;sensor_type;location;lat;lon;timestamp;temperature;humidity
16578;DHT22;8401;52.528;13.340;2023-03-26T00:01:19;8.60;99.90
16578;DHT22;8401;52.528;13.340;2023-03-26T00:03:46;8.60;99.90
16578;DHT22;8401;52.528;13.340;2023-03-26T00:06:18;8.60;99.90
16578;DHT22;8401;52.528;13.340;2023-03-26T00:08:45;8.60;99.90
16578;DHT22;8401;52.528;13.340;2023-03-26T00:11:13;8.60;99.90
16578;DHT22;8401;52.528;13.340;2023-03-26T00:13:39;8.60;99.90
16578;DHT22;8401;52.528;13.340;2023-03-26T00:16:09;8.70;99.90
16578;DHT22;8401;52.528;13.340;2023-03-26T00:18:35;8.70;99.90
16578;DHT22;8401;52.528;13.340;2023-03-26T00:21:04;8.70;99.90
16578;DHT22;8401;52.528;13.340;2023-03-26T00:23:31;8.60;99.90
16578;DHT22;8401;52.528;13.340;2023-03-26T00:25:58;8.70;99.90
16578;DHT22;8401;52.528;13.340;2023-03-26T00:28:25;8.70;99.90
16578;DHT22;8401;52.528;13.340;2023-03-26T00:31:03;8.70;99.90
16578;DHT22;8401;52.528;13.340;2023-03-26T00:33:29;8.80;99.90
16578;DHT22;8401;52.528;13.340;2023-03-26T00:35:58;8.70;99.90
16578;DHT22;8401;52.528;13.340;2023-03-26T00:38:26;8.70;99.90
16578;DHT22;8401;52.528;13.340;2023-03-26T00:40:53;8.70;99.90
16578;DHT22;8401;52.528;13.340;2023-03-26T00:43:20;8.70;99.90
16578;DHT22;8401;52.528;13.340;2023-03-26T00:45:48;8.80;99.90
16578;DHT22;8401;52.528;13.340;2023-03-26T00:48:15;8.70;99.90
16578;DHT22;8401;52.528;13.340;2023-03-26T00:50:41;8.80;99.90
16578;DHT22;8401;52.528;13.340;2023-03-26T00:53:08;8.70;99.90
16578;DHT22;8401;52.528;13.340;2023-03-26T00:55:36;8.70;99.90
16578;DHT22;8401;52.528;13.340;2023-03-26T00:58:02;8.70;99.90
16578;DHT22;8401;52.528;13.340;2023-03-26T01:00:30;8.70;99.90
16578;DHT22;8401;52.528;13.340;2023-03-26T01:02:59;8.70;99.90
16578;DHT22;8401;52.528;13.340;2023-03-26T01:05:39;8.70;99.90
16578;DHT22;8401;52.528;13.340;2023-03-26T01:08:32;8.70;99.90
16578;DHT22;8401;52.528;13.340;2023-03-26T01:11:03;8.60;99.90
16578;DHT22;8401;52.528;13.340;2023-03-26T01:13:38;8.60;99.90
16578;DHT22;8401;52.528;13.340;2023-03-26T01:16:08;8.60;99.90
16578;DHT22;8401;52.528;13.340;2023-03-26T01:18:36;8.60;99.90
16578;DHT22;8401;52.528;13.340;2023-03-26T01:21:06;8.60;99.90
16578;DHT22;8401;52.528;13.340;2023-03-26T01:23:45;8.50;99.90
16578;DHT22;8401;52.528;13.340;2023-03-26T01:26:42;8.40;99.90
16578;DHT22;8401;52.528;13.340;2023-03-26T01:46:06;8.00;99.90
16578;DHT22;8401;52.528;13.340;2023-03-26T01:48:38;8.00;99.90
16578;DHT22;8401;52.528;13.340;2023-03-26T01:51:06;8.00;99.90
16578;DHT22;8401;52.528;13.340;2023-03-26T01:53:37;8.00;99.90
16578;DHT22;8401;52.528;13.340;2023-03-26T02:01:36;8.00;99.90
16578;DHT22;8401;52.528;13.340;2023-03-26T02:04:20;8.10;99.90
16578;DHT22;8401;52.528;13.340;2023-03-26T02:06:58;8.10;99.90
16578;DHT22;8401;52.528;13.340;2023-03-26T02:09:31;8.10;99.90
16578;DHT22;8401;52.528;13.340;2023-03-26T02:12:00;8.00;99.90
16578;DHT22;8401;52.528;13.340;2023-03-26T02:14:29;8.00;99.90
16578;DHT22;8401;52.528;13.340;2023-03-26T02:16:55;7.90;99.90
16578;DHT22;8401;52.528;13.340;2023-03-26T02:19:21;7.90;99.90
16578;DHT22;8401;52.528;13.340;2023-03-26T02:21:49;8.00;99.90
16578;DHT22;8401;52.528;13.340;2023-03-26T02:24:17;8.00;99.90
16578;DHT22;8401;52.528;13.340;2023-03-26T02:26:43;7.90;99.90
16578;DHT22;8401;52.528;13.340;2023-03-26T02:29:10;7.90;99.90
16578;DHT22;8401;52.528;13.340;2023-03-26T02:31:36;7.90;99.90
16578;DHT22;8401;52.528;13.340;2023-03-26T02:34:02;7.80;99.90
16578;DHT22;8401;52.528;13.340;2023-03-26T02:36:27;7.80;99.90
16578;DHT22;8401;52.528;13.340;2023-03-26T02:38:54;7.90;99.90
16578;DHT22;8401;52.528;13.340;2023-03-26T02:41:22;7.80;99.90
16578;DHT22;8401;52.528;13.340;2023-03-26T02:43:47;7.90;99.90
16578;DHT22;8401;52.528;13.340;2023-03-26T02:46:13;7.90;99.90
16578;DHT22;8401;52.528;13.340;2023-03-26T02:48:39;7.80;99.90
16578;DHT22;8401;52.528;13.340;2023-03-26T02:51:06;7.80;99.90
16578;DHT22;8401;52.528;13.340;2023-03-26T02:53:32;7.90;99.90
16578;DHT22;8401;52.528;13.340;2023-03-26T02:55:59;7.80;99.90
16578;DHT22;8401;52.528;13.340;2023-03-26T02:58:25;7.90;99.90
16578;DHT22;8401;52.528;13.340;2023-03-26T03:00:52;7.90;99.90
16578;DHT22;8401;52.528;13.340;2023-03-26T03:03:22;7.90;99.90
16578;DHT22;8401;52.528;13.340;2023-03-26T03:05:52;8.00;99.90
16578;DHT22;8401;52.528;13.340;2023-03-26T03:08:23;7.90;99.90
16578;DHT22;8401;52.528;13.340;2023-03-26T03:10:57;7.90;99.90
16578;DHT22;8401;52.528;13.340;2023-03-26T03:13:24;8.00;99.90
16578;DHT22;8401;52.528;13.340;2023-03-26T03:15:49;8.00;99.90
16578;DHT22;8401;52.528;13.340;2023-03-26T03:18:15;7.90;99.90
16578;DHT22;8401;52.528;13.340;2023-03-26T03:20:41;7.90;99.90
16578;DHT22;8401;52.528;13.340;2023-03-26T03:23:06;7.90;99.90
16578;DHT22;8401;52.528;13.340;2023-03-26T03:25:32;8.00;99.90
16578;DHT22;8401;52.528;13.340;2023-03-26T03:27:58;8.10;99.90
16578;DHT22;8401;52.528;13.340;2023-03-26T03:30:24;8.00;99.90
16578;DHT22;8401;52.528;13.340;2023-03-26T03:32:50;8.00;99.90
16578;DHT22;8401;52.528;13.340;2023-03-26T03:35:15;8.00;99.90
16578;DHT22;8401;52.528;13.340;2023-03-26T03:37:41;8.10;99.90
16578;DHT22;8401;52.528;13.340;2023-03-26T03:40:07;8.10;99.90
16578;DHT22;8401;52.528;13.340;2023-03-26T03:42:35;8.10;99.90
16578;DHT22;8401;52.528;13.340;2023-03-26T03:45:04;8.10;99.90
16578;DHT22;8401;52.528;13.340;2023-03-26T03:47:31;8.10;99.90
16578;DHT22;8401;52.528;13.340;2023-03-26T03:49:56;8.10;99.90
16578;DHT22;8401;52.528;13.340;2023-03-26T03:52:25;8.00;99.90
16578;DHT22;8401;52.528;13.340;2023-03-26T03:54:51;8.00;99.90
16578;DHT22;8401;52.528;13.340;2023-03-26T03:57:17;8.10;99.90
16578;DHT22;8401;52.528;13.340;2023-03-26T03:59:43;8.10;99.90
16578;DHT22;8401;52.528;13.340;2023-03-26T04:02:09;8.10;99.90
16578;DHT22;8401;52.528;13.340;2023-03-26T04:04:35;8.10;99.90
16578;DHT22;8401;52.528;13.340;2023-03-26T04:07:03;8.10;99.90
16578;DHT22;8401;52.528;13.340;2023-03-26T04:09:29;8.10;99.90
16578;DHT22;8401;52.528;13.340;2023-03-26T04:11:55;8.10;99.90
16578;DHT22;8401;52.528;13.340;2023-03-26T04:14:21;8.10;99.90
16578;DHT22;8401;52.528;13.340;2023-03-26T04:16:46;8.00;99.90
16578;DHT22;8401;52.528;13.340;2023-03-26T04:19:14;8.10;99.90
16578;DHT22;8401;52.528;13.340;2023-03-26T04:21:40;8.10;99.90
16578;DHT22;8401;52.528;13.340;2023-03-26T04:24:08;8.20;99.90
16578;DHT22;8401;52.528;13.340;2023-03-26T04:26:34;8.10;99.90
16578;DHT22;8401;52.528;13.340;2023-03-26T04:29:02;8.10;99.90
16578;DHT22;8401;52.528;13.340;2023-03-26T04:31:29;8.20;99.90
16578;DHT22;8401;52.528;13.340;2023-03-26T04:34:21;8.20;99.90
16578;DHT22;8401;52.528;13.340;2023-03-26T04:36:51;8.10;99.90
16578;DHT22;8401;52.528;13.340;2023-03-26T04:39:19;8.00;99.90
16578;DHT22;8401;52.528;13.340;2023-03-26T04:41:46;8.00;99.90
16578;DHT22;8401;52.528;13.340;2023-03-26T04:44:13;8.00;99.90
16578;DHT22;8401;52.528;13.340;2023-03-26T04:46:42;8.00;99.90
16578;DHT22;8401;52.528;13.340;2023-03-26T04:49:08;7.90;99.90
16578;DHT22;8401;52.528;13.340;2023-03-26T04:51:36;7.90;99.90
16578;DHT22;8401;52.528;13.340;2023-03-26T04:54:03;7.90;99.90
16578;DHT22;8401;52.528;13.340;2023-03-26T04:56:59;7.80;99.90
16578;DHT22;8401;52.528;13.340;2023-03-26T04:59:29;7.90;99.90
16578;DHT22;8401;52.528;13.340;2023-03-26T05:01:59;7.90;99.90
16578;DHT22;8401;52.528;13.340;2023-03-26T05:04:25;7.90;99.90
16578;DHT22;8401;52.528;13.340;2023-03-26T05:06:54;7.90;99.90
16578;DHT22;8401;52.528;13.340;2023-03-26T05:09:21;7.80;99.90
16578;DHT22;8401;52.528;13.340;2023-03-26T05:11:47;7.80;99.90
16578;DHT22;8401;52.528;13.340;2023-03-26T05:14:12;7.90;99.90
16578;DHT22;8401;52.528;13.340;2023-03-26T05:16:38;7.80;99.90
16578;DHT22;8401;52.528;13.340;2023-03-26T05:19:05;7.90;99.90
16578;DHT22;8401;52.528;13.340;2023-03-26T05:21:31;7.90;99.90
16578;DHT22;8401;52.528;13.340;2023-03-26T05:23:57;8.00;99.90
16578;DHT22;8401;52.528;13.340;2023-03-26T05:26:22;8.00;99.90
16578;DHT22;8401;52.528;13.340;2023-03-26T05:28:48;8.00;99.90
16578;DHT22;8401;52.528;13.340;2023-03-26T05:31:13;8.10;99.90
16578;DHT22;8401;52.528;13.340;2023-03-26T05:33:42;8.10;99.90
16578;DHT22;8401;52.528;13.340;2023-03-26T05:36:10;8.10;99.90
16578;DHT22;8401;52.528;13.340;2023-03-26T05:38:40;8.00;99.90
16578;DHT22;8401;52.528;13.340;2023-03-26T05:41:08;8.00;99.90
16578;DHT22;8401;52.528;13.340;2023-03-26T05:43:34;8.00;99.90
16578;DHT22;8401;52.528;13.340;2023-03-26T05:46:00;8.00;99.90
16578;DHT22;8401;52.528;13.340;2023-03-26T05:48:27;8.00;99.90
16578;DHT22;8401;52.528;13.340;2023-03-26T05:50:54;8.10;99.90
16578;DHT22;8401;52.528;13.340;2023-03-26T05:53:21;8.10;99.90
16578;DHT22;8401;52.528;13.340;2023-03-26T05:55:48;8.10;99.90
16578;DHT22;8401;52.528;13.340;2023-03-26T05:58:30;8.10;99.90
16578;DHT22;8401;52.528;13.340;2023-03-26T06:01:03;8.00;99.90
16578;DHT22;8401;52.528;13.340;2023-03-26T06:03:33;8.00;99.90
16578;DHT22;8401;52.528;13.340;2023-03-26T06:05:59;8.10;99.90
16578;DHT22;8401;52.528;13.340;2023-03-26T06:08:25;8.10;99.90
16578;DHT22;8401;52.528;13.340;2023-03-26T06:10:57;8.10;99.90
16578;DHT22;8401;52.528;13.340;2023-03-26T06:13:23;8.10;99.90
16578;DHT22;8401;52.528;13.340;2023-03-26T06:15:49;8.20;99.90
16578;DHT22;8401;52.528;13.340;2023-03-26T06:18:15;8.10;99.90
16578;DHT22;8401;52.528;13.340;2023-03-26T06:20:42;8.10;99.90
16578;DHT22;8401;52.528;13.340;2023-03-26T06:23:08;8.10;99.90
16578;DHT22;8401;52.528;13.340;2023-03-26T06:25:33;8.10;99.90
16578;DHT22;8401;52.528;13.340;2023-03-26T06:28:00;8.10;99.90
16578;DHT22;8401;52.528;13.340;2023-03-26T06:30:25;8.10;99.90
16578;DHT22;8401;52.528;13.340;2023-03-26T06:32:51;8.00;99.90
16578;DHT22;8401;52.528;13.340;2023-03-26T06:35:17;8.10;99.90
16578;DHT22;8401;52.528;13.340;2023-03-26T06:37:42;8.10;99.90
16578;DHT22;8401;52.528;13.340;2023-03-26T06:40:09;8.00;99.90
16578;DHT22;8401;52.528;13.340;2023-03-26T06:42:34;8.10;99.90
16578;DHT22;8401;52.528;13.340;2023-03-26T06:45:00;8.00;99.90
16578;DHT22;8401;52.528;13.340;2023-03-26T06:47:26;7.90;99.90
16578;DHT22;8401;52.528;13.340;2023-03-26T06:49:51;7.80;99.90
16578;DHT22;8401;52.528;13.340;2023-03-26T06:52:17;7.90;99.90
16578;DHT22;8401;52.528;13.340;2023-03-26T06:54:42;7.90;99.90
16578;DHT22;8401;52.528;13.340;2023-03-26T06:57:08;8.10;99.90
16578;DHT22;8401;52.528;13.340;2023-03-26T06:59:34;8.20;99.90
16578;DHT22;8401;52.528;13.340;2023-03-26T07:01:59;8.30;99.90
16578;DHT22;8401;52.528;13.340;2023-03-26T07:04:25;8.40;99.90
16578;DHT22;8401;52.528;13.340;2023-03-26T07:06:51;8.60;99.90
16578;DHT22;8401;52.528;13.340;2023-03-26T07:09:16;8.60;99.90
16578;DHT22;8401;52.528;13.340;2023-03-26T07:11:42;8.80;99.90
16578;DHT22;8401;52.528;13.340;2023-03-26T07:14:07;8.80;99.90
16578;DHT22;8401;52.528;13.340;2023-03-26T07:16:33;8.70;99.90
16578;DHT22;8401;52.528;13.340;2023-03-26T07:18:59;8.70;99.90
16578;DHT22;8401;52.528;13.340;2023-03-26T07:21:25;8.70;99.90
16578;DHT22;8401;52.528;13.340;2023-03-26T07:23:51;8.80;99.90
16578;DHT22;8401;52.528;13.340;2023-03-26T07:26:24;8.70;99.90
16578;DHT22;8401;52.528;13.340;2023-03-26T07:31:49;8.80;99.90
16578;DHT22;8401;52.528;13.340;2023-03-26T07:39:58;8.80;99.90
16578;DHT22;8401;52.528;13.340;2023-03-26T07:45:38;8.90;99.90
16578;DHT22;8401;52.528;13.340;2023-03-26T07:48:38;8.80;99.90
16578;DHT22;8401;52.528;13.340;2023-03-26T07:51:05;8.80;99.90
16578;DHT22;8401;52.528;13.340;2023-03-26T07:53:31;8.60;99.90
16578;DHT22;8401;52.528;13.340;2023-03-26T07:56:12;8.60;99.90
16578;DHT22;8401;52.528;13.340;2023-03-26T08:01:40;8.80;99.90
16578;DHT22;8401;52.528;13.340;2023-03-26T08:06:37;8.90;99.90
16578;DHT22;8401;52.528;13.340;2023-03-26T08:17:10;8.90;99.90
16578;DHT22;8401;52.528;13.340;2023-03-26T08:22:48;8.90;99.90
16578;DHT22;8401;52.528;13.340;2023-03-26T08:25:32;8.80;99.90
16578;DHT22;8401;52.528;13.340;2023-03-26T08:31:10;9.10;99.90
16578;DHT22;8401;52.528;13.340;2023-03-26T08:33:38;9.10;99.90
16578;DHT22;8401;52.528;13.340;2023-03-26T08:36:06;9.40;99.90
16578;DHT22;8401;52.528;13.340;2023-03-26T08:38:31;9.40;99.90
16578;DHT22;8401;52.528;13.340;2023-03-26T09:08:22;9.50;99.90
16578;DHT22;8401;52.528;13.340;2023-03-26T09:14:17;9.30;99.90
16578;DHT22;8401;52.528;13.340;2023-03-26T09:17:09;9.30;99.90
16578;DHT22;8401;52.528;13.340;2023-03-26T09:28:40;9.10;99.90
16578;DHT22;8401;52.528;13.340;2023-03-26T09:31:49;9.10;99.90
16578;DHT22;8401;52.528;13.340;2023-03-26T09:35:02;9.00;99.90
16578;DHT22;8401;52.528;13.340;2023-03-26T09:40:20;8.20;99.90
16578;DHT22;8401;52.528;13.340;2023-03-26T09:42:53;8.20;99.90
16578;DHT22;8401;52.528;13.340;2023-03-26T09:48:02;7.90;99.90
16578;DHT22;8401;52.528;13.340;2023-03-26T10:10:52;8.40;99.90
16578;DHT22;8401;52.528;13.340;2023-03-26T10:32:24;8.30;99.90
16578;DHT22;8401;52.528;13.340;2023-03-26T10:35:19;8.30;99.90
16578;DHT22;8401;52.528;13.340;2023-03-26T10:38:11;8.40;99.90
16578;DHT22;8401;52.528;13.340;2023-03-26T10:43:28;8.40;99.90
16578;DHT22;8401;52.528;13.340;2023-03-26T10:49:07;8.50;99.90
16578;DHT22;8401;52.528;13.340;2023-03-26T10:51:46;8.70;99.90
16578;DHT22;8401;52.528;13.340;2023-03-26T10:59:53;8.90;99.90
16578;DHT22;8401;52.528;13.340;2023-03-26T11:02:30;9.20;99.90
16578;DHT22;8401;52.528;13.340;2023-03-26T11:05:18;9.10;99.90
16578;DHT22;8401;52.528;13.340;2023-03-26T11:07:50;9.40;99.90
16578;DHT22;8401;52.528;13.340;2023-03-26T11:15:40;10.20;99.90
16578;DHT22;8401;52.528;13.340;2023-03-26T11:18:17;10.90;99.90
16578;DHT22;8401;52.528;13.340;2023-03-26T11:21:10;11.00;99.90
16578;DHT22;8401;52.528;13.340;2023-03-26T11:29:54;11.60;99.90
16578;DHT22;8401;52.528;13.340;2023-03-26T11:32:55;11.40;99.90
16578;DHT22;8401;52.528;13.340;2023-03-26T11:35:28;11.40;99.90
16578;DHT22;8401;52.528;13.340;2023-03-26T11:38:01;10.90;99.90
16578;DHT22;8401;52.528;13.340;2023-03-26T11:40:30;11.00;99.90
16578;DHT22;8401;52.528;13.340;2023-03-26T11:43:03;10.80;99.90
16578;DHT22;8401;52.528;13.340;2023-03-26T11:45:33;10.70;99.90
16578;DHT22;8401;52.528;13.340;2023-03-26T11:48:19;10.60;99.90
16578;DHT22;8401;52.528;13.340;2023-03-26T11:50:50;10.80;99.90
16578;DHT22;8401;52.528;13.340;2023-03-26T11:53:23;10.80;99.90
16578;DHT22;8401;52.528;13.340;2023-03-26T11:56:42;10.70;99.90
16578;DHT22;8401;52.528;13.340;2023-03-26T11:58:54;10.80;99.90
16578;DHT22;8401;52.528;13.340;2023-03-26T12:01:49;10.90;99.90
16578;DHT22;8401;52.528;13.340;2023-03-26T12:06:54;10.80;99.90
16578;DHT22;8401;52.528;13.340;2023-03-26T12:09:21;10.90;99.90
16578;DHT22;8401;52.528;13.340;2023-03-26T12:11:47;10.80;99.90
16578;DHT22;8401;52.528;13.340;2023-03-26T12:14:20;11.00;99.90
16578;DHT22;8401;52.528;13.340;2023-03-26T12:16:57;11.40;99.90
16578;DHT22;8401;52.528;13.340;2023-03-26T12:19:23;11.70;99.90
16578;DHT22;8401;52.528;13.340;2023-03-26T12:21:52;11.80;99.90
16578;DHT22;8401;52.528;13.340;2023-03-26T12:24:33;11.90;99.90
16578;DHT22;8401;52.528;13.340;2023-03-26T12:27:24;11.70;99.90
16578;DHT22;8401;52.528;13.340;2023-03-26T12:30:20;11.70;99.90
16578;DHT22;8401;52.528;13.340;2023-03-26T12:32:47;11.70;99.90
16578;DHT22;8401;52.528;13.340;2023-03-26T12:35:17;11.90;99.90
16578;DHT22;8401;52.528;13.340;2023-03-26T12:37:44;12.10;99.90
16578;DHT22;8401;52.528;13.340;2023-03-26T12:40:27;11.80;99.90
16578;DHT22;8401;52.528;13.340;2023-03-26T12:43:00;11.50;99.90
16578;DHT22;8401;52.528;13.340;2023-03-26T12:45:30;11.40;99.90
16578;DHT22;8401;52.528;13.340;2023-03-26T12:47:58;11.60;99.90
16578;DHT22;8401;52.528;13.340;2023-03-26T12:50:31;11.80;99.90
16578;DHT22;8401;52.528;13.340;2023-03-26T12:56:18;11.90;99.90
16578;DHT22;8401;52.528;13.340;2023-03-26T13:10:32;11.70;99.90
16578;DHT22;8401;52.528;13.340;2023-03-26T13:13:32;11.70;99.90
16578;DHT22;8401;52.528;13.340;2023-03-26T13:18:56;11.90;99.90
16578;DHT22;8401;52.528;13.340;2023-03-26T13:38:14;11.70;99.90
16578;DHT22;8401;52.528;13.340;2023-03-26T13:43:36;11.50;99.90
16578;DHT22;8401;52.528;13.340;2023-03-26T13:49:14;11.60;99.90
16578;DHT22;8401;52.528;13.340;2023-03-26T13:51:47;11.20;99.90
16578;DHT22;8401;52.528;13.340;2023-03-26T13:54:38;11.30;99.90
16578;DHT22;8401;52.528;13.340;2023-03-26T13:59:51;11.50;99.90
16578;DHT22;8401;52.528;13.340;2023-03-26T14:02:39;11.40;99.90
16578;DHT22;8401;52.528;13.340;2023-03-26T14:05:12;11.40;99.90
16578;DHT22;8401;52.528;13.340;2023-03-26T14:07:46;11.60;99.90
16578;DHT22;8401;52.528;13.340;2023-03-26T14:10:20;11.70;99.90
16578;DHT22;8401;52.528;13.340;2023-03-26T14:21:40;12.30;99.90
16578;DHT22;8401;52.528;13.340;2023-03-26T14:24:30;12.80;99.90
16578;DHT22;8401;52.528;13.340;2023-03-26T14:27:23;12.90;99.90
16578;DHT22;8401;52.528;13.340;2023-03-26T14:35:39;12.80;99.90
16578;DHT22;8401;52.528;13.340;2023-03-26T14:41:32;12.40;99.90
16578;DHT22;8401;52.528;13.340;2023-03-26T14:44:16;12.10;99.90
16578;DHT22;8401;52.528;13.340;2023-03-26T14:46:57;12.00;99.90
16578;DHT22;8401;52.528;13.340;2023-03-26T14:54:54;12.70;99.90
16578;DHT22;8401;52.528;13.340;2023-03-26T15:11:11;11.80;99.90
16578;DHT22;8401;52.528;13.340;2023-03-26T15:17:17;11.70;99.90
16578;DHT22;8401;52.528;13.340;2023-03-26T15:51:21;11.80;99.90
16578;DHT22;8401;52.528;13.340;2023-03-26T15:53:55;11.70;99.90
16578;DHT22;8401;52.528;13.340;2023-03-26T15:59:27;11.50;99.90
16578;DHT22;8401;52.528;13.340;2023-03-26T16:02:28;11.60;99.90
16578;DHT22;8401;52.528;13.340;2023-03-26T16:08:09;11.40;99.90
16578;DHT22;8401;52.528;13.340;2023-03-26T16:10:52;11.40;99.90
16578;DHT22;8401;52.528;13.340;2023-03-26T16:18:40;11.20;99.90
16578;DHT22;8401;52.528;13.340;2023-03-26T16:23:57;11.00;99.90
16578;DHT22;8401;52.528;13.340;2023-03-26T16:27:00;11.00;99.90
16578;DHT22;8401;52.528;13.340;2023-03-26T16:29:27;10.80;99.90
16578;DHT22;8401;52.528;13.340;2023-03-26T16:32:55;10.80;99.90
16578;DHT22;8401;52.528;13.340;2023-03-26T16:35:41;10.70;99.90
16578;DHT22;8401;52.528;13.340;2023-03-26T16:38:15;10.80;99.90
16578;DHT22;8401;52.528;13.340;2023-03-26T16:40:54;10.80;99.90
16578;DHT22;8401;52.528;13.340;2023-03-26T16:43:50;10.70;99.90
16578;DHT22;8401;52.528;13.340;2023-03-26T16:46:25;10.70;99.90
16578;DHT22;8401;52.528;13.340;2023-03-26T16:54:52;10.50;99.90
16578;DHT22;8401;52.528;13.340;2023-03-26T17:00:50;10.30;99.90
16578;DHT22;8401;52.528;13.340;2023-03-26T17:03:40;10.20;99.90
16578;DHT22;8401;52.528;13.340;2023-03-26T17:06:27;10.20;99.90
16578;DHT22;8401;52.528;13.340;2023-03-26T17:09:33;10.20;99.90
16578;DHT22;8401;52.528;13.340;2023-03-26T17:12:16;10.10;99.90
16578;DHT22;8401;52.528;13.340;2023-03-26T17:20:04;9.80;99.90
16578;DHT22;8401;52.528;13.340;2023-03-26T17:25:31;9.80;99.90
16578;DHT22;8401;52.528;13.340;2023-03-26T17:41:10;9.50;99.90
16578;DHT22;8401;52.528;13.340;2023-03-26T17:48:41;9.50;99.90
16578;DHT22;8401;52.528;13.340;2023-03-26T17:54:18;9.40;99.90
16578;DHT22;8401;52.528;13.340;2023-03-26T17:56:45;9.30;99.90
16578;DHT22;8401;52.528;13.340;2023-03-26T17:59:18;9.30;99.90
16578;DHT22;8401;52.528;13.340;2023-03-26T18:01:50;9.30;99.90
16578;DHT22;8401;52.528;13.340;2023-03-26T18:04:38;9.30;99.90
16578;DHT22;8401;52.528;13.340;2023-03-26T18:16:15;9.20;99.90
16578;DHT22;8401;52.528;13.340;2023-03-26T18:18:52;9.20;99.90
16578;DHT22;8401;52.528;13.340;2023-03-26T18:21:37;9.20;99.90
16578;DHT22;8401;52.528;13.340;2023-03-26T18:24:10;9.20;99.90
16578;DHT22;8401;52.528;13.340;2023-03-26T18:26:48;9.20;99.90
16578;DHT22;8401;52.528;13.340;2023-03-26T18:31:58;9.20;99.90
16578;DHT22;8401;52.528;13.340;2023-03-26T18:34:26;9.20;99.90
16578;DHT22;8401;52.528;13.340;2023-03-26T18:37:17;9.20;99.90
16578;DHT22;8401;52.528;13.340;2023-03-26T18:40:21;9.10;99.90
16578;DHT22;8401;52.528;13.340;2023-03-26T18:42:50;9.00;99.90
16578;DHT22;8401;52.528;13.340;2023-03-26T18:45:35;9.00;99.90
16578;DHT22;8401;52.528;13.340;2023-03-26T18:50:38;9.10;99.90
16578;DHT22;8401;52.528;13.340;2023-03-26T18:53:06;9.00;99.90
16578;DHT22;8401;52.528;13.340;2023-03-26T18:55:34;9.00;99.90
16578;DHT22;8401;52.528;13.340;2023-03-26T18:58:20;8.90;99.90
16578;DHT22;8401;52.528;13.340;2023-03-26T19:00:47;9.00;99.90
16578;DHT22;8401;52.528;13.340;2023-03-26T19:03:15;8.90;99.90
16578;DHT22;8401;52.528;13.340;2023-03-26T19:05:43;9.00;99.90
16578;DHT22;8401;52.528;13.340;2023-03-26T19:08:09;9.00;99.90
16578;DHT22;8401;52.528;13.340;2023-03-26T19:10:35;8.90;99.90
16578;DHT22;8401;52.528;13.340;2023-03-26T19:13:02;8.90;99.90
16578;DHT22;8401;52.528;13.340;2023-03-26T19:15:30;8.90;99.90
16578;DHT22;8401;52.528;13.340;2023-03-26T19:17:59;8.90;99.90
16578;DHT22;8401;52.528;13.340;2023-03-26T19:20:49;8.70;99.90
16578;DHT22;8401;52.528;13.340;2023-03-26T19:23:18;8.60;99.90
16578;DHT22;8401;52.528;13.340;2023-03-26T19:25:49;8.50;99.90
16578;DHT22;8401;52.528;13.340;2023-03-26T19:28:20;8.50;99.90
16578;DHT22;8401;52.528;13.340;2023-03-26T19:30:51;8.40;99.90
16578;DHT22;8401;52.528;13.340;2023-03-26T19:33:20;8.40;99.90
16578;DHT22;8401;52.528;13.340;2023-03-26T19:35:51;8.40;99.90
16578;DHT22;8401;52.528;13.340;2023-03-26T19:38:26;8.40;99.90
16578;DHT22;8401;52.528;13.340;2023-03-26T19:40:54;8.30;99.90
16578;DHT22;8401;52.528;13.340;2023-03-26T19:43:22;8.30;99.90
16578;DHT22;8401;52.528;13.340;2023-03-26T19:45:49;8.30;99.90
16578;DHT22;8401;52.528;13.340;2023-03-26T19:48:18;8.40;99.90
16578;DHT22;8401;52.528;13.340;2023-03-26T19:51:03;8.40;99.90
16578;DHT22;8401;52.528;13.340;2023-03-26T19:53:34;8.30;99.90
16578;DHT22;8401;52.528;13.340;2023-03-26T19:58:35;8.40;99.90
16578;DHT22;8401;52.528;13.340;2023-03-26T20:01:02;8.30;99.90
16578;DHT22;8401;52.528;13.340;2023-03-26T20:03:35;8.40;99.90
16578;DHT22;8401;52.528;13.340;2023-03-26T20:06:02;8.30;99.90
16578;DHT22;8401;52.528;13.340;2023-03-26T20:08:28;8.40;99.90
16578;DHT22;8401;52.528;13.340;2023-03-26T20:10:55;8.30;99.90
16578;DHT22;8401;52.528;13.340;2023-03-26T20:13:20;8.30;99.90
16578;DHT22;8401;52.528;13.340;2023-03-26T20:15:54;8.30;99.90
16578;DHT22;8401;52.528;13.340;2023-03-26T20:18:22;8.20;99.90
16578;DHT22;8401;52.528;13.340;2023-03-26T20:20:48;8.20;99.90
16578;DHT22;8401;52.528;13.340;2023-03-26T20:23:14;7.90;99.90
16578;DHT22;8401;52.528;13.340;2023-03-26T20:25:50;7.80;99.90
16578;DHT22;8401;52.528;13.340;2023-03-26T20:28:18;7.90;99.90
16578;DHT22;8401;52.528;13.340;2023-03-26T20:30:46;8.00;99.90
16578;DHT22;8401;52.528;13.340;2023-03-26T20:33:18;8.00;99.90
16578;DHT22;8401;52.528;13.340;2023-03-26T20:35:44;7.90;99.90
16578;DHT22;8401;52.528;13.340;2023-03-26T20:38:09;7.90;99.90
16578;DHT22;8401;52.528;13.340;2023-03-26T20:40:35;7.80;99.90
16578;DHT22;8401;52.528;13.340;2023-03-26T20:43:03;7.80;99.90
16578;DHT22;8401;52.528;13.340;2023-03-26T20:45:30;7.70;99.90
16578;DHT22;8401;52.528;13.340;2023-03-26T20:47:57;7.60;99.90
16578;DHT22;8401;52.528;13.340;2023-03-26T20:50:23;7.50;99.90
16578;DHT22;8401;52.528;13.340;2023-03-26T20:52:50;7.50;99.90
16578;DHT22;8401;52.528;13.340;2023-03-26T20:55:18;7.40;99.90
16578;DHT22;8401;52.528;13.340;2023-03-26T20:57:46;7.40;99.90
16578;DHT22;8401;52.528;13.340;2023-03-26T21:00:14;7.50;99.90
16578;DHT22;8401;52.528;13.340;2023-03-26T21:02:46;7.70;99.90
16578;DHT22;8401;52.528;13.340;2023-03-26T21:05:12;7.50;99.90
16578;DHT22;8401;52.528;13.340;2023-03-26T21:07:46;7.50;99.90
16578;DHT22;8401;52.528;13.340;2023-03-26T21:10:13;7.40;99.90
16578;DHT22;8401;52.528;13.340;2023-03-26T21:12:55;7.30;99.90
16578;DHT22;8401;52.528;13.340;2023-03-26T21:15:21;7.30;99.90
16578;DHT22;8401;52.528;13.340;2023-03-26T21:17:49;7.40;99.90
16578;DHT22;8401;52.528;13.340;2023-03-26T21:20:17;7.40;99.90
16578;DHT22;8401;52.528;13.340;2023-03-26T21:22:57;7.30;99.90
16578;DHT22;8401;52.528;13.340;2023-03-26T21:28:24;7.30;99.90
16578;DHT22;8401;52.528;13.340;2023-03-26T21:30:51;7.30;99.90
16578;DHT22;8401;52.528;13.340;2023-03-26T21:33:16;7.20;99.90
16578;DHT22;8401;52.528;13.340;2023-03-26T21:35:43;7.20;99.90
16578;DHT22;8401;52.528;13.340;2023-03-26T21:38:10;7.10;99.90
16578;DHT22;8401;52.528;13.340;2023-03-26T21:40:36;7.10;99.90
16578;DHT22;8401;52.528;13.340;2023-03-26T21:43:03;7.00;99.90
16578;DHT22;8401;52.528;13.340;2023-03-26T21:45:29;7.00;99.90
16578;DHT22;8401;52.528;13.340;2023-03-26T21:47:55;7.00;99.90
16578;DHT22;8401;52.528;13.340;2023-03-26T21:50:21;6.90;99.90
16578;DHT22;8401;52.528;13.340;2023-03-26T21:52:49;6.80;99.90
16578;DHT22;8401;52.528;13.340;2023-03-26T21:55:17;6.90;99.90
16578;DHT22;8401;52.528;13.340;2023-03-26T22:06:50;6.70;99.90
16578;DHT22;8401;52.528;13.340;2023-03-26T22:09:21;6.70;99.90
16578;DHT22;8401;52.528;13.340;2023-03-26T22:11:47;6.70;99.90